Time;durP1;ratioP1;P1;durP2;ratioP2;P2;SDS_P1;SDS_P2;PMS_P1;PMS_P2;Temp;Humidity;BMP_temperature;BMP_pressure;BME280_temperature;BME280_humidity;BME280_pressure;Samples;Min_cycle;Max_cycle;Signal;HPM_P1;HPM_P2
2021/08/15 00:04:26;;;;;;;6.50;4.38;;;22.20;68.80;;;;;;10338746;28;20546;-49
2021/08/15 00:09:27;;;;;;;6.53;4.85;;;22.20;68.80;;;;;;10337635;28;20487;-49
2021/08/15 00:14:28;;;;;;;5.80;4.63;;;22.20;68.90;;;;;;10338114;28;20177;-51
2021/08/15 00:19:28;;;;;;;6.60;4.38;;;22.10;68.80;;;;;;10356747;28;20490;-50
2021/08/15 00:24:29;;;;;;;4.95;4.15;;;22.10;68.80;;;;;;10367616;28;20518;-52
2021/08/15 00:29:30;;;;;;;5.75;4.13;;;22.10;68.80;;;;;;10364114;28;20026;-48
2021/08/15 00:34:32;;;;;;;4.82;3.85;;;22.10;68.60;;;;;;10337690;28;20157;-51
2021/08/15 00:39:33;;;;;;;5.78;4.43;;;22.10;68.60;;;;;;10337417;28;20050;-49
2021/08/15 00:44:34;;;;;;;4.97;4.10;;;22.10;68.40;;;;;;10356506;28;20516;-53
2021/08/15 00:49:34;;;;;;;5.25;4.20;;;22.10;68.50;;;;;;10359201;28;20384;-50
2021/08/15 00:54:35;;;;;;;6.03;4.00;;;22.10;68.50;;;;;;10336697;28;20048;-49
2021/08/15 00:59:39;;;;;;;5.32;3.75;;;22.10;68.70;;;;;;10335698;28;20045;-49
2021/08/15 01:04:40;;;;;;;5.90;4.30;;;22.10;68.80;;;;;;10355691;28;20095;-51
2021/08/15 01:09:41;;;;;;;5.63;4.30;;;22.10;68.70;;;;;;10358852;28;20033;-50
2021/08/15 01:14:44;;;;;;;5.72;4.18;;;22.10;68.70;;;;;;10335419;28;20036;-48
2021/08/15 01:19:44;;;;;;;5.13;4.43;;;22.10;68.80;;;;;;10346912;28;20375;-50
2021/08/15 01:24:45;;;;;;;6.03;4.28;;;22.10;68.80;;;;;;10354635;28;20165;-52
2021/08/15 01:29:47;;;;;;;5.32;3.92;;;22.10;68.90;;;;;;10335562;28;20023;-49
2021/08/15 01:34:48;;;;;;;5.60;4.10;;;22.10;68.90;;;;;;10356526;28;20113;-50
2021/08/15 01:39:49;;;;;;;7.18;4.75;;;22.10;68.60;;;;;;10362770;28;20050;-50
2021/08/15 01:44:49;;;;;;;6.20;4.47;;;22.00;68.40;;;;;;10333807;28;20038;-52
2021/08/15 01:49:50;;;;;;;6.13;4.38;;;22.10;68.60;;;;;;10361386;28;20450;-50
2021/08/15 01:54:51;;;;;;;6.75;4.30;;;22.00;68.60;;;;;;10361641;28;20113;-50
2021/08/15 01:59:51;;;;;;;5.85;4.00;;;22.00;69.30;;;;;;10374804;28;20169;-49
2021/08/15 02:04:52;;;;;;;5.25;4.25;;;22.00;68.70;;;;;;10362355;28;20117;-50
2021/08/15 02:09:53;;;;;;;6.15;4.25;;;22.00;68.60;;;;;;10373155;28;20057;-49
2021/08/15 02:14:53;;;;;;;4.97;3.88;;;22.00;68.80;;;;;;10351944;28;20582;-50
2021/08/15 02:19:54;;;;;;;5.28;4.22;;;22.00;68.80;;;;;;10336686;28;20068;-53
2021/08/15 02:24:55;;;;;;;6.22;4.50;;;22.00;68.80;;;;;;10333318;28;20166;-47
2021/08/15 02:29:55;;;;;;;6.03;4.15;;;22.00;68.70;;;;;;10333389;28;20062;-49
2021/08/15 02:34:56;;;;;;;4.35;3.75;;;22.00;68.70;;;;;;10333435;28;20077;-48
2021/08/15 02:40:00;;;;;;;5.95;4.40;;;22.00;68.70;;;;;;10363848;28;20410;-48
2021/08/15 02:45:01;;;;;;;5.07;3.97;;;22.00;68.80;;;;;;10350611;28;20391;-49
2021/08/15 02:50:04;;;;;;;6.07;4.20;;;22.00;68.80;;;;;;10332861;28;20084;-48
2021/08/15 02:55:07;;;;;;;5.38;4.32;;;22.00;68.60;;;;;;10348426;28;20034;-53
2021/08/15 03:00:10;;;;;;;5.60;4.00;;;22.00;68.70;;;;;;10331767;28;20089;-48
2021/08/15 03:05:11;;;;;;;5.70;4.00;;;22.00;68.80;;;;;;10344596;28;20086;-51
2021/08/15 03:10:12;;;;;;;5.57;4.15;;;21.90;68.70;;;;;;10332661;28;20038;-48
2021/08/15 03:15:13;;;;;;;5.95;3.83;;;21.90;68.60;;;;;;10332882;28;20061;-49
2021/08/15 03:20:14;;;;;;;5.25;4.05;;;21.90;68.60;;;;;;10335835;28;20038;-49
2021/08/15 03:25:14;;;;;;;5.68;4.03;;;21.90;68.60;;;;;;10332584;28;20112;-50
2021/08/15 03:30:15;;;;;;;4.65;3.80;;;21.90;68.60;;;;;;10332066;28;20076;-49
2021/08/15 03:35:16;;;;;;;5.65;4.47;;;21.90;68.50;;;;;;10337028;28;20049;-50
2021/08/15 03:40:17;;;;;;;4.75;3.50;;;21.90;68.40;;;;;;10373428;28;20076;-48
2021/08/15 03:45:18;;;;;;;5.68;4.28;;;21.90;68.70;;;;;;10354615;28;20553;-48
2021/08/15 03:50:18;;;;;;;5.93;4.30;;;21.90;68.50;;;;;;10339180;28;20038;-49
2021/08/15 03:55:19;;;;;;;6.72;4.30;;;21.90;68.50;;;;;;10354087;28;20100;-47
2021/08/15 04:00:20;;;;;;;5.97;3.70;;;21.90;68.50;;;;;;10358410;28;20482;-49
2021/08/15 04:05:20;;;;;;;6.82;4.30;;;21.90;68.60;;;;;;10356216;28;20118;-51
2021/08/15 04:10:21;;;;;;;4.45;3.35;;;21.90;68.70;;;;;;10354209;28;20098;-49
2021/08/15 04:15:22;;;;;;;4.63;3.65;;;21.90;68.60;;;;;;10353768;28;20030;-50
2021/08/15 04:20:23;;;;;;;5.68;3.92;;;21.90;68.60;;;;;;10356890;28;20101;-50
2021/08/15 04:25:23;;;;;;;4.55;3.88;;;21.90;68.40;;;;;;10352499;28;20105;-51
2021/08/15 04:30:24;;;;;;;7.50;4.00;;;21.90;68.50;;;;;;10357438;28;20121;-52
2021/08/15 04:35:25;;;;;;;5.50;4.53;;;21.80;68.40;;;;;;10353142;28;20372;-50
2021/08/15 04:40:26;;;;;;;5.50;4.50;;;21.80;68.40;;;;;;10356268;28;20042;-51
2021/08/15 04:45:26;;;;;;;6.55;4.30;;;21.80;68.70;;;;;;10343021;28;20026;-49
2021/08/15 04:50:27;;;;;;;5.78;4.28;;;21.80;68.10;;;;;;10350075;28;20061;-52
2021/08/15 04:55:28;;;;;;;4.80;3.25;;;21.80;68.30;;;;;;10352098;28;20027;-49
2021/08/15 05:00:28;;;;;;;6.25;4.53;;;21.80;68.60;;;;;;10360442;28;20521;-51
2021/08/15 05:05:29;;;;;;;5.00;3.75;;;21.80;68.30;;;;;;10353122;28;20030;-48
2021/08/15 05:10:30;;;;;;;5.47;4.45;;;21.80;68.30;;;;;;10335950;28;20027;-51
2021/08/15 05:15:30;;;;;;;8.82;4.75;;;21.80;68.10;;;;;;10336490;28;20479;-48
2021/08/15 05:20:32;;;;;;;6.25;4.50;;;21.80;68.70;;;;;;10340632;28;20046;-48
2021/08/15 05:25:32;;;;;;;6.47;4.28;;;21.90;69.10;;;;;;10335575;28;20034;-48
2021/08/15 05:30:33;;;;;;;8.32;4.63;;;21.90;69.20;;;;;;10338941;28;20242;-48
2021/08/15 05:35:34;;;;;;;8.35;5.50;;;21.90;69.40;;;;;;10361666;28;20459;-50
2021/08/15 05:40:35;;;;;;;8.35;5.45;;;21.90;69.10;;;;;;10340605;28;20498;-52
2021/08/15 05:45:37;;;;;;;9.88;5.43;;;22.00;69.60;;;;;;10349062;28;20045;-51
2021/08/15 05:50:38;;;;;;;9.13;5.47;;;22.00;70.30;;;;;;10366371;28;20035;-48
2021/08/15 05:55:38;;;;;;;9.50;4.65;;;22.00;69.50;;;;;;10361847;28;20038;-49
2021/08/15 06:00:39;;;;;;;8.02;5.22;;;22.00;69.60;;;;;;10352183;28;20034;-47
2021/08/15 06:05:40;;;;;;;10.55;5.57;;;22.00;69.40;;;;;;10347144;28;20104;-49
2021/08/15 06:10:41;;;;;;;6.90;5.35;;;22.00;69.60;;;;;;10362151;28;20030;-54
2021/08/15 06:15:41;;;;;;;12.85;5.70;;;22.00;69.50;;;;;;10350451;28;20030;-53
2021/08/15 06:20:42;;;;;;;14.60;6.80;;;22.00;69.50;;;;;;10337818;28;20069;-49
2021/08/15 06:25:43;;;;;;;12.75;6.78;;;22.00;69.70;;;;;;10333876;28;20070;-48
2021/08/15 06:30:43;;;;;;;14.10;6.85;;;22.00;69.70;;;;;;10354334;28;20444;-53
2021/08/15 06:35:44;;;;;;;11.20;6.75;;;22.00;69.80;;;;;;10362125;28;20073;-54
2021/08/15 06:40:45;;;;;;;12.90;7.25;;;22.00;69.70;;;;;;10346141;28;20042;-49
2021/08/15 06:45:45;;;;;;;11.57;7.03;;;22.00;70.00;;;;;;10346987;28;20053;-50
2021/08/15 06:50:46;;;;;;;11.18;7.15;;;22.00;69.80;;;;;;10341313;28;20705;-53
2021/08/15 06:55:47;;;;;;;13.18;6.30;;;22.00;70.10;;;;;;10350764;28;20065;-52
2021/08/15 07:00:48;;;;;;;9.32;6.82;;;22.00;70.10;;;;;;10371414;28;20034;-49
2021/08/15 07:05:49;;;;;;;11.98;6.93;;;22.10;70.20;;;;;;10345972;28;20062;-49
2021/08/15 07:10:51;;;;;;;10.98;7.07;;;22.10;70.20;;;;;;10345615;28;20038;-51
2021/08/15 07:15:52;;;;;;;13.68;7.22;;;22.10;70.20;;;;;;10356324;28;20439;-49
2021/08/15 07:20:57;;;;;;;10.00;7.10;;;22.10;70.20;;;;;;10349939;28;20543;-47
2021/08/15 07:25:58;;;;;;;10.05;7.20;;;22.10;70.40;;;;;;10351672;28;20133;-52
2021/08/15 07:30:58;;;;;;;11.68;6.70;;;22.20;70.40;;;;;;10363041;28;20026;-48
2021/08/15 07:35:59;;;;;;;16.83;7.28;;;22.20;70.40;;;;;;10367828;28;20044;-55
2021/08/15 07:41:00;;;;;;;14.85;8.13;;;22.30;71.10;;;;;;10356799;28;20041;-56
2021/08/15 07:46:01;;;;;;;12.38;9.50;;;22.30;71.30;;;;;;10349843;28;20032;-53
2021/08/15 07:51:01;;;;;;;14.30;9.93;;;22.30;71.90;;;;;;10354901;28;20037;-56
2021/08/15 07:56:03;;;;;;;16.55;10.30;;;22.40;71.60;;;;;;10379124;28;20144;-56
2021/08/15 08:01:04;;;;;;;13.88;9.23;;;22.60;70.30;;;;;;10357507;28;20049;-56
2021/08/15 08:06:05;;;;;;;19.98;11.38;;;22.50;70.70;;;;;;10353439;28;20387;-55
2021/08/15 08:11:06;;;;;;;16.15;9.85;;;22.50;70.70;;;;;;10375937;28;20426;-55
2021/08/15 08:16:07;;;;;;;14.13;9.50;;;22.40;70.50;;;;;;10368233;28;20026;-55
2021/08/15 08:21:07;;;;;;;15.20;10.68;;;22.40;70.60;;;;;;10352919;28;20030;-56
2021/08/15 08:26:08;;;;;;;11.93;10.05;;;22.40;70.40;;;;;;10347285;28;20523;-54
2021/08/15 08:31:09;;;;;;;11.63;9.35;;;22.40;70.30;;;;;;10351244;28;20060;-56
2021/08/15 08:36:09;;;;;;;14.10;10.02;;;22.30;70.20;;;;;;10353469;28;20027;-56
2021/08/15 08:41:13;;;;;;;13.63;9.10;;;22.30;70.20;;;;;;10355017;28;20085;-56
2021/08/15 08:46:14;;;;;;;9.52;8.52;;;22.30;70.20;;;;;;10355462;28;20520;-56
2021/08/15 08:51:20;;;;;;;12.02;8.55;;;22.30;70.20;;;;;;10364744;28;20033;-56
2021/08/15 08:56:22;;;;;;;9.45;8.18;;;22.30;69.90;;;;;;10347680;28;20533;-56
2021/08/15 09:01:22;;;;;;;11.95;8.27;;;22.20;69.90;;;;;;10375613;28;20041;-55
2021/08/15 09:06:26;;;;;;;13.32;8.18;;;22.20;69.70;;;;;;10358717;28;20558;-56
2021/08/15 09:11:27;;;;;;;8.88;7.25;;;22.20;70.00;;;;;;10336363;28;20026;-55
2021/08/15 09:17:06;;;;;;;7.93;6.40;;;22.20;69.90;;;;;;10349906;28;20026;-56
2021/08/15 09:22:10;;;;;;;11.35;6.95;;;22.30;69.90;;;;;;10342708;28;20030;-55
2021/08/15 09:27:16;;;;;;;9.93;7.43;;;22.30;69.70;;;;;;10343862;28;20430;-53
2021/08/15 09:32:24;;;;;;;18.05;7.50;;;22.30;69.70;;;;;;10356104;28;20026;-55
2021/08/15 09:37:33;;;;;;;17.17;7.87;;;22.30;69.50;;;;;;10363243;28;20038;-55
2021/08/15 09:42:41;;;;;;;;;;;22.30;69.50;;;;;;10349163;28;20073;-53
2021/08/15 09:47:43;;;;;;;24.75;10.23;;;22.40;70.70;;;;;;10338352;28;19918;-57
2021/08/15 09:52:44;;;;;;;18.70;9.45;;;22.50;70.40;;;;;;10371147;28;20026;-55
2021/08/15 09:57:45;;;;;;;15.00;9.07;;;22.60;70.50;;;;;;10347580;28;20364;-53
2021/08/15 10:02:47;;;;;;;19.15;8.25;;;22.60;69.60;;;;;;10333952;28;20073;-51
2021/08/15 10:07:48;;;;;;;17.30;9.68;;;22.70;69.30;;;;;;10340667;28;20387;-50
2021/08/15 10:12:49;;;;;;;18.20;10.57;;;22.70;69.30;;;;;;10342193;28;20361;-47
2021/08/15 10:17:52;;;;;;;14.32;9.82;;;22.80;69.20;;;;;;10335481;28;20062;-49
2021/08/15 10:23:12;;;;;;;22.38;10.60;;;22.80;68.80;;;;;;10332273;28;20069;-50
2021/08/15 10:28:28;;;;;;;15.68;9.88;;;22.90;68.70;;;;;;10348298;28;20490;-54
2021/08/15 10:33:31;;;;;;;13.82;9.73;;;23.00;69.20;;;;;;10348965;28;20105;-53
2021/08/15 10:38:32;;;;;;;15.88;9.48;;;23.00;69.50;;;;;;10344797;28;20085;-51
2021/08/15 10:43:32;;;;;;;15.55;8.80;;;23.10;68.90;;;;;;10356243;28;20042;-54
2021/08/15 10:49:06;;;;;;;14.63;8.57;;;23.00;68.90;;;;;;10363307;28;20034;-52
2021/08/15 10:54:28;;;;;;;13.13;8.73;;;22.90;68.50;;;;;;10373487;28;20030;-53
2021/08/15 10:59:39;;;;;;;10.73;7.75;;;22.90;68.60;;;;;;10354857;28;20034;-49
2021/08/15 11:05:02;;;;;;;12.50;7.28;;;22.90;68.60;;;;;;10366620;28;20817;-52
2021/08/15 11:10:06;;;;;;;18.52;8.32;;;22.90;68.50;;;;;;10333332;28;20046;-52
2021/08/15 11:15:09;;;;;;;11.45;7.85;;;22.90;68.40;;;;;;10344952;28;20038;-53
2021/08/15 11:20:31;;;;;;;10.40;7.65;;;22.80;68.50;;;;;;10321409;28;20157;-51
2021/08/15 11:25:32;;;;;;;9.23;7.45;;;22.80;68.40;;;;;;10372718;28;20061;-52
2021/08/15 11:30:33;;;;;;;13.98;7.30;;;22.80;68.60;;;;;;10372283;28;20747;-53
2021/08/15 11:35:43;;;;;;;10.75;7.35;;;22.80;68.80;;;;;;10372665;28;20034;-51
2021/08/15 11:40:51;;;;;;;8.15;6.65;;;22.80;68.70;;;;;;10346210;28;20058;-53
2021/08/15 11:45:56;;;;;;;8.90;6.43;;;22.80;68.80;;;;;;10358390;28;20121;-51
2021/08/15 11:51:02;;;;;;;10.40;6.97;;;22.80;68.80;;;;;;10331735;28;20031;-54
2021/08/15 11:56:12;;;;;;;7.32;6.57;;;22.80;68.90;;;;;;10335698;28;20475;-53
2021/08/15 12:01:20;;;;;;;8.98;6.43;;;22.80;69.10;;;;;;10366566;28;20073;-56
2021/08/15 12:06:21;;;;;;;10.07;7.13;;;22.80;68.90;;;;;;10360287;28;20037;-56
2021/08/15 12:11:25;;;;;;;11.57;6.60;;;22.80;68.80;;;;;;10369355;28;20112;-55
2021/08/15 12:16:25;;;;;;;9.90;6.88;;;22.80;68.90;;;;;;10375530;28;20029;-56
2021/08/15 12:21:39;;;;;;;12.65;7.13;;;22.80;69.00;;;;;;10352149;28;20029;-55
2021/08/15 12:26:52;;;;;;;11.40;6.25;;;22.80;69.40;;;;;;10374835;28;20053;-57
2021/08/15 12:32:29;;;;;;;9.90;6.05;;;22.90;69.50;;;;;;10353679;28;20038;-56
2021/08/15 12:37:43;;;;;;;13.77;6.28;;;22.90;69.40;;;;;;10354578;28;20049;-56
2021/08/15 12:43:00;;;;;;;18.60;7.00;;;23.00;69.60;;;;;;10346074;28;20100;-54
2021/08/15 12:48:03;;;;;;;11.55;7.40;;;23.00;69.60;;;;;;10344505;28;20395;-57
2021/08/15 12:53:14;;;;;;;14.38;6.90;;;23.00;69.60;;;;;;10351335;28;20046;-56
2021/08/15 12:58:16;;;;;;;13.50;6.75;;;23.00;69.60;;;;;;10345671;28;20039;-57
2021/08/15 13:03:19;;;;;;;14.55;6.72;;;23.00;69.80;;;;;;10347559;28;20052;-56
2021/08/15 13:08:20;;;;;;;18.80;8.02;;;23.00;70.00;;;;;;10351456;28;20038;-58
2021/08/15 13:13:22;;;;;;;22.55;6.60;;;23.00;70.10;;;;;;10354272;28;20105;-57
2021/08/15 13:18:22;;;;;;;14.45;6.68;;;23.10;70.70;;;;;;10356644;28;20041;-56
2021/08/15 13:23:23;;;;;;;16.35;6.13;;;23.10;70.70;;;;;;10349611;28;20033;-56
2021/08/15 13:28:24;;;;;;;15.75;6.50;;;23.10;70.40;;;;;;10371506;28;20385;-56
2021/08/15 13:33:24;;;;;;;13.70;5.85;;;23.10;70.20;;;;;;10368256;28;20062;-56
2021/08/15 13:38:25;;;;;;;12.73;5.70;;;23.10;70.10;;;;;;10353564;28;20061;-57
2021/08/15 13:43:26;;;;;;;12.70;5.75;;;23.10;70.10;;;;;;10348130;28;20105;-56
2021/08/15 13:48:26;;;;;;;10.30;5.55;;;23.10;70.00;;;;;;10342179;28;20117;-56
2021/08/15 13:53:27;;;;;;;9.25;6.22;;;23.10;69.80;;;;;;10352185;28;20026;-57
2021/08/15 13:58:30;;;;;;;9.70;6.53;;;23.10;69.70;;;;;;10344151;28;20054;-56
2021/08/15 14:03:31;;;;;;;7.80;5.38;;;23.10;69.50;;;;;;10337857;28;20030;-58
2021/08/15 14:08:31;;;;;;;10.52;5.88;;;23.10;69.40;;;;;;10341135;28;20034;-58
2021/08/15 14:13:32;;;;;;;9.40;5.53;;;23.10;69.40;;;;;;10354425;28;20038;-58
2021/08/15 14:18:33;;;;;;;13.50;6.28;;;23.10;69.30;;;;;;10350079;28;20037;-57
2021/08/15 14:23:34;;;;;;;11.45;6.45;;;23.10;69.50;;;;;;10352708;28;20054;-57
2021/08/15 14:28:34;;;;;;;10.10;6.22;;;23.10;69.30;;;;;;10347506;28;20504;-53
2021/08/15 14:33:35;;;;;;;12.82;5.53;;;23.10;69.30;;;;;;10347989;28;20053;-57
2021/08/15 14:38:37;;;;;;;8.50;6.55;;;23.10;69.10;;;;;;10342886;28;20038;-56
2021/08/15 14:43:39;;;;;;;9.32;6.32;;;23.10;69.10;;;;;;10346341;28;20425;-57
2021/08/15 14:48:41;;;;;;;13.00;6.15;;;23.10;69.20;;;;;;10335760;28;20030;-56
2021/08/15 14:53:41;;;;;;;10.05;6.05;;;23.10;68.80;;;;;;10365227;28;20032;-56
2021/08/15 14:58:42;;;;;;;19.17;7.15;;;23.10;68.90;;;;;;10353398;28;20432;-56
2021/08/15 15:03:42;;;;;;;12.10;6.53;;;23.10;69.40;;;;;;10343842;28;20092;-55
2021/08/15 15:08:43;;;;;;;13.10;7.45;;;23.10;70.00;;;;;;10351540;28;20118;-56
2021/08/15 15:13:44;;;;;;;16.63;7.30;;;23.20;68.80;;;;;;10349123;28;20022;-55
2021/08/15 15:18:44;;;;;;;14.27;7.57;;;23.30;69.40;;;;;;10354963;28;20131;-56
2021/08/15 15:23:45;;;;;;;22.05;8.30;;;23.40;69.10;;;;;;10334441;28;20034;-56
2021/08/15 15:28:46;;;;;;;10.45;6.45;;;23.40;69.00;;;;;;10333090;28;20455;-55
2021/08/15 15:33:47;;;;;;;10.70;6.10;;;23.40;69.20;;;;;;10340102;28;20057;-56
2021/08/15 15:38:48;;;;;;;10.50;6.80;;;23.40;69.30;;;;;;10339372;28;20050;-56
2021/08/15 15:43:48;;;;;;;6.78;5.30;;;23.30;68.80;;;;;;10340082;28;20030;-56
2021/08/15 15:48:49;;;;;;;7.15;5.82;;;23.30;67.70;;;;;;10361836;28;20029;-56
2021/08/15 15:53:50;;;;;;;12.20;6.22;;;23.30;67.40;;;;;;10371121;28;20407;-56
2021/08/15 15:58:52;;;;;;;9.50;6.07;;;23.30;67.10;;;;;;10376860;28;20088;-55
2021/08/15 16:03:53;;;;;;;8.88;5.68;;;23.30;66.70;;;;;;10364694;28;20041;-55
2021/08/15 16:08:55;;;;;;;8.43;6.40;;;23.20;67.00;;;;;;10377823;28;20057;-55
2021/08/15 16:13:56;;;;;;;8.50;6.00;;;23.20;66.70;;;;;;10343853;28;20442;-55
2021/08/15 16:18:58;;;;;;;10.05;6.45;;;23.20;67.30;;;;;;10343495;28;20034;-56
2021/08/15 16:23:58;;;;;;;9.05;6.68;;;23.20;67.00;;;;;;10342052;28;20387;-56
2021/08/15 16:28:59;;;;;;;8.95;5.63;;;23.20;67.30;;;;;;10362802;28;20073;-56
2021/08/15 16:34:00;;;;;;;10.15;6.50;;;23.10;67.70;;;;;;10345326;28;20387;-56
2021/08/15 16:39:02;;;;;;;9.70;6.55;;;23.10;68.30;;;;;;10348636;28;20089;-56
2021/08/15 16:44:03;;;;;;;8.75;6.05;;;23.10;67.40;;;;;;10344907;28;20045;-56
2021/08/15 16:49:04;;;;;;;7.72;5.80;;;23.10;67.40;;;;;;10353888;28;20558;-57
2021/08/15 16:54:05;;;;;;;8.85;5.97;;;23.10;67.60;;;;;;10358608;28;20026;-56
2021/08/15 16:59:06;;;;;;;13.75;6.15;;;23.10;67.60;;;;;;10377317;28;20530;-55
2021/08/15 17:04:07;;;;;;;9.77;6.15;;;23.10;67.40;;;;;;10368752;28;20022;-56
2021/08/15 17:09:07;;;;;;;8.48;5.53;;;23.10;67.80;;;;;;10350579;28;20034;-56
2021/08/15 17:14:08;;;;;;;9.90;5.50;;;23.10;68.10;;;;;;10349272;28;20118;-55
2021/08/15 17:19:09;;;;;;;12.35;6.10;;;23.10;68.30;;;;;;10336803;28;20038;-56
2021/08/15 17:24:10;;;;;;;8.23;5.65;;;23.10;68.70;;;;;;10335608;28;20030;-55
2021/08/15 17:29:10;;;;;;;16.05;5.78;;;23.10;68.40;;;;;;10348868;28;20056;-56
2021/08/15 17:34:11;;;;;;;13.57;6.03;;;23.10;68.50;;;;;;10357571;28;20029;-57
2021/08/15 17:39:15;;;;;;;16.73;5.97;;;23.10;68.60;;;;;;10339015;28;20125;-57
2021/08/15 17:44:16;;;;;;;7.97;5.95;;;23.10;68.90;;;;;;10363570;28;20038;-58
2021/08/15 17:49:16;;;;;;;10.05;5.65;;;23.10;68.60;;;;;;10359707;28;20443;-58
2021/08/15 17:54:17;;;;;;;15.18;6.18;;;23.10;69.10;;;;;;10374547;28;20057;-56
2021/08/15 17:59:19;;;;;;;16.83;6.28;;;23.10;69.40;;;;;;10375131;28;20054;-58
2021/08/15 18:04:19;;;;;;;9.60;5.57;;;23.10;69.10;;;;;;10356479;28;20064;-57
2021/08/15 18:09:20;;;;;;;13.50;6.30;;;23.10;69.00;;;;;;10355866;28;20069;-56
2021/08/15 18:14:21;;;;;;;10.93;5.28;;;23.10;68.90;;;;;;10344499;28;20030;-57
2021/08/15 18:19:23;;;;;;;12.30;6.45;;;23.10;69.10;;;;;;10347013;28;20109;-56
2021/08/15 18:24:24;;;;;;;12.13;6.15;;;23.10;69.10;;;;;;10349128;28;20114;-57
2021/08/15 18:29:25;;;;;;;11.55;5.97;;;23.10;69.00;;;;;;10345509;28;20097;-57
2021/08/15 18:34:26;;;;;;;10.05;5.78;;;23.10;68.90;;;;;;10333497;28;20085;-56
2021/08/15 18:39:29;;;;;;;16.02;6.72;;;23.10;68.90;;;;;;10332868;28;20165;-53
2021/08/15 18:44:30;;;;;;;10.05;5.70;;;23.10;68.60;;;;;;10336742;28;20044;-56
2021/08/15 18:49:31;;;;;;;7.78;5.70;;;23.00;68.60;;;;;;10373353;28;20471;-56
2021/08/15 18:54:31;;;;;;;8.13;5.35;;;23.10;68.60;;;;;;10343658;28;20391;-56
2021/08/15 18:59:32;;;;;;;9.65;5.07;;;23.00;68.60;;;;;;10354258;28;20030;-56
2021/08/15 19:04:33;;;;;;;13.20;5.78;;;23.00;68.60;;;;;;10362016;28;20046;-57
2021/08/15 19:09:34;;;;;;;8.07;5.18;;;23.00;68.60;;;;;;10355250;28;20518;-57
2021/08/15 19:14:34;;;;;;;7.78;5.57;;;23.00;68.90;;;;;;10357750;28;20522;-57
2021/08/15 19:19:35;;;;;;;9.73;5.57;;;23.10;68.90;;;;;;10347895;28;20109;-57
2021/08/15 19:24:36;;;;;;;8.98;5.20;;;23.00;68.80;;;;;;10344144;28;20034;-58
2021/08/15 19:29:37;;;;;;;11.88;6.20;;;23.00;69.00;;;;;;10355263;28;20030;-58
2021/08/15 19:34:38;;;;;;;9.43;5.82;;;23.10;69.30;;;;;;10356611;28;20104;-58
2021/08/15 19:39:38;;;;;;;9.63;5.38;;;23.10;69.40;;;;;;10356915;28;20050;-57
2021/08/15 19:44:39;;;;;;;7.78;5.15;;;23.10;69.40;;;;;;10339908;28;20022;-56
2021/08/15 19:49:40;;;;;;;7.72;5.70;;;23.10;69.20;;;;;;10339062;28;20105;-56
2021/08/15 19:54:41;;;;;;;11.00;6.07;;;23.10;69.10;;;;;;10341630;28;20030;-56
2021/08/15 19:59:43;;;;;;;8.52;5.18;;;23.10;68.90;;;;;;10363676;28;20032;-56
2021/08/15 20:04:45;;;;;;;8.43;5.82;;;23.10;69.10;;;;;;10349802;28;20030;-56
2021/08/15 20:09:46;;;;;;;7.40;4.63;;;23.00;69.10;;;;;;10338828;28;20014;-56
2021/08/15 20:14:46;;;;;;;9.35;5.70;;;23.00;69.10;;;;;;10337970;28;20062;-56
2021/08/15 20:19:47;;;;;;;9.50;5.38;;;23.00;68.80;;;;;;10339746;28;20113;-56
2021/08/15 20:24:48;;;;;;;7.65;4.72;;;23.00;68.80;;;;;;10345642;28;20545;-56
2021/08/15 20:29:48;;;;;;;7.00;4.80;;;23.00;68.70;;;;;;10336945;28;20472;-57
2021/08/15 20:34:49;;;;;;;7.38;4.55;;;23.00;68.80;;;;;;10365636;28;20053;-56
2021/08/15 20:39:53;;;;;;;7.38;4.68;;;23.00;68.90;;;;;;10377181;28;20128;-56
2021/08/15 20:44:53;;;;;;;8.80;4.90;;;23.00;68.80;;;;;;10348567;28;20487;-57
2021/08/15 20:49:54;;;;;;;6.82;4.55;;;23.00;68.70;;;;;;10343106;28;20109;-57
2021/08/15 20:54:58;;;;;;;6.15;4.72;;;23.00;68.60;;;;;;10371707;28;20394;-57
2021/08/15 20:59:59;;;;;;;7.40;5.15;;;23.00;68.50;;;;;;10367000;28;20030;-56
2021/08/15 21:04:59;;;;;;;6.53;4.65;;;23.00;68.60;;;;;;10354048;28;20062;-57
2021/08/15 21:10:00;;;;;;;7.75;4.25;;;22.90;68.60;;;;;;10347373;28;20023;-56
2021/08/15 21:15:01;;;;;;;8.15;5.03;;;22.90;68.70;;;;;;10334646;28;20061;-57
2021/08/15 21:20:03;;;;;;;6.30;4.78;;;22.90;68.90;;;;;;10347447;28;20118;-57
2021/08/15 21:25:04;;;;;;;6.03;4.60;;;22.90;68.70;;;;;;10336859;28;20034;-56
2021/08/15 21:30:11;;;;;;;7.55;4.13;;;22.90;68.60;;;;;;10335932;28;20033;-56
2021/08/15 21:35:13;;;;;;;6.18;4.43;;;22.90;68.50;;;;;;10336032;28;20057;-57
2021/08/15 21:40:15;;;;;;;9.23;4.43;;;22.90;68.60;;;;;;10335379;28;20061;-56
2021/08/15 21:45:16;;;;;;;5.80;4.38;;;22.90;68.60;;;;;;10335210;28;20034;-56
2021/08/15 21:50:17;;;;;;;5.43;4.15;;;22.90;68.50;;;;;;10368495;28;20054;-57
2021/08/15 21:55:18;;;;;;;6.15;4.15;;;22.80;68.50;;;;;;10342598;28;20058;-56
2021/08/15 22:00:19;;;;;;;5.13;3.97;;;22.90;68.40;;;;;;10334852;28;20109;-56
2021/08/15 22:05:19;;;;;;;6.10;4.32;;;22.80;68.40;;;;;;10356875;28;20479;-57
2021/08/15 22:10:21;;;;;;;6.00;4.15;;;22.80;68.20;;;;;;10334399;28;20053;-57
2021/08/15 22:15:21;;;;;;;5.82;3.90;;;22.80;68.10;;;;;;10361700;28;20030;-56
2021/08/15 22:20:23;;;;;;;5.70;3.80;;;22.80;68.10;;;;;;10340315;28;20049;-56
2021/08/15 22:25:25;;;;;;;6.47;3.90;;;22.80;68.10;;;;;;10334114;28;20110;-57
2021/08/15 22:30:27;;;;;;;5.32;4.03;;;22.80;68.20;;;;;;10354984;28;20026;-57
2021/08/15 22:35:28;;;;;;;6.45;4.18;;;22.80;68.20;;;;;;10340388;28;20038;-57
2021/08/15 22:40:29;;;;;;;5.93;3.65;;;22.80;68.10;;;;;;10331798;28;20495;-57
2021/08/15 22:45:29;;;;;;;6.05;4.25;;;22.80;68.10;;;;;;10333381;28;20506;-57
2021/08/15 22:50:30;;;;;;;5.95;3.55;;;22.80;68.10;;;;;;10364475;28;20117;-57
2021/08/15 22:55:31;;;;;;;7.40;4.85;;;22.80;68.30;;;;;;10371572;28;20038;-56
2021/08/15 23:00:32;;;;;;;6.88;3.35;;;22.80;68.40;;;;;;10335678;28;20117;-56
2021/08/15 23:05:33;;;;;;;6.63;3.45;;;22.80;68.30;;;;;;10331161;28;20026;-56
2021/08/15 23:10:34;;;;;;;6.55;4.18;;;22.80;68.20;;;;;;10357724;28;20112;-57
2021/08/15 23:15:34;;;;;;;7.88;3.70;;;22.70;68.10;;;;;;10332752;28;20109;-56
2021/08/15 23:20:35;;;;;;;5.63;3.20;;;22.70;68.10;;;;;;10333798;28;20030;-56
2021/08/15 23:25:36;;;;;;;5.78;3.63;;;22.70;68.10;;;;;;10332283;28;20110;-55
2021/08/15 23:30:36;;;;;;;6.15;3.33;;;22.70;68.10;;;;;;10332806;28;20041;-57
2021/08/15 23:35:37;;;;;;;5.82;3.78;;;22.70;68.10;;;;;;10344303;28;20041;-57
2021/08/15 23:40:38;;;;;;;5.50;3.78;;;22.70;68.10;;;;;;10332245;28;20078;-56
2021/08/15 23:45:40;;;;;;;6.00;3.67;;;22.70;68.00;;;;;;10330998;28;20033;-57
2021/08/15 23:50:40;;;;;;;5.97;3.45;;;22.80;68.00;;;;;;10367489;28;20062;-57
2021/08/15 23:55:41;;;;;;;7.40;4.03;;;22.70;67.90;;;;;;10376716;28;20426;-57
